If you wish to contribute or participate in the discussions about articles you are invited to join SKYbrary as a registered user

 Actions

Trondheim/Vaernes

From SKYbrary Wiki

ENVA
Airport
ICAO: ENVA
Summary
Name Trondheim/Vaernes
Region Europe
Territory Norway NO.gif
Location Trondheim, Norway
Serving
Coordinates 63° 27' 45", 10° 55' 24"
Runways
Designator Length Width Surface ROPS
9/27 2759 m9,051.837 ft 45 m147.638 ft ASP no/no
13/31 1454 m4,770.341 ft 36 m118.11 ft ASP /
14/32 950 m3,116.798 ft 36 m118.11 ft ASP /


METAR
Observation ENVA 210420Z 26011KT 9999 -RA BKN035 OVC047 08/06 Q1007 RMK WIND 670FT 26010KT
Station Trondheim / Vaernes
Date/Time 21 June 2018 04:20:00
Wind direction 260°
Wind speed 11 kts
Lowest cloud amount broken clouds
Temperature 8°C
Dew point 6°C
Humidity 87%
QNH 1007 hPa
Weather condition light rain


Trondheim Airport

ICAO: ENVA IATA: TRD

Description

International airport serving Trondheim, Norway.

Climatology

Temperate Marine climate/Oceanic climate (Köppen climate classification Cfb). Moderately cool summer and comparatively warm winter with a temperature range of only 14°C287.15 K
57.2 °F
516.87 °R
. Prevailing south-westerly winds from the Atlantic Ocean.

Maps

Terrain

Loading map...

Airport Layout

Loading map...


Accidents & Serious Incidents at or in vicinity of ENVA

None on SKYbrary